createdAt,value
2019-01-05T00:00:49.331Z,31.50
2019-01-05T00:03:38.592Z,32.17
2019-01-05T00:06:18.533Z,32.00
2019-01-05T00:09:05.624Z,31.60
2019-01-05T00:11:50.941Z,31.33
2019-01-05T00:14:36.389Z,30.93
2019-01-05T00:17:25.581Z,32.50
2019-01-05T00:20:12.953Z,32.03
2019-01-05T00:23:04.272Z,32.80
2019-01-05T00:26:02.766Z,32.33
2019-01-05T00:28:48.725Z,34.13
2019-01-05T00:31:46.448Z,33.57
2019-01-05T00:34:30.648Z,31.60
2019-01-05T00:37:18.937Z,32.27
2019-01-05T00:40:10.070Z,34.17
2019-01-05T00:43:06.044Z,32.97
2019-01-05T00:45:52.818Z,33.20
2019-01-05T00:48:57.021Z,32.53
2019-01-05T00:51:43.520Z,32.80
2019-01-05T00:54:47.334Z,32.03
2019-01-05T00:57:34.413Z,32.63
2019-01-05T01:00:24.741Z,32.73
2019-01-05T01:03:17.583Z,31.70
2019-01-05T01:06:11.446Z,32.87
2019-01-05T01:08:56.777Z,31.93
2019-01-05T01:11:43.561Z,32.60
2019-01-05T01:14:36.717Z,33.00
2019-01-05T01:17:18.073Z,32.40
2019-01-05T01:20:03.197Z,31.53
2019-01-05T01:22:59.299Z,33.47
2019-01-05T01:25:48.960Z,32.77
2019-01-05T01:28:34.985Z,32.90
2019-01-05T01:31:19.805Z,33.33
2019-01-05T01:34:20.769Z,33.17
2019-01-05T01:37:07.755Z,33.47
2019-01-05T01:40:02.221Z,35.57
2019-01-05T01:42:48.166Z,34.67
2019-01-05T01:45:35.998Z,34.17
2019-01-05T01:48:19.096Z,32.97
2019-01-05T01:51:12.701Z,34.20
2019-01-05T01:53:58.838Z,35.07
2019-01-05T01:56:45.713Z,36.07
2019-01-05T01:59:42.213Z,36.30
2019-01-05T02:02:28.120Z,37.23
2019-01-05T02:05:09.666Z,38.63
2019-01-05T02:07:59.693Z,37.53
2019-01-05T02:10:47.723Z,35.77
2019-01-05T02:13:45.720Z,37.53
2019-01-05T02:16:35.708Z,37.03
2019-01-05T02:19:34.967Z,36.67
2019-01-05T02:22:58.769Z,36.63
2019-01-05T02:26:29.200Z,35.80
2019-01-05T02:30:15.097Z,38.27
2019-01-05T02:33:44.789Z,36.87
2019-01-05T02:37:13.813Z,35.60
2019-01-05T02:40:19.275Z,37.07
2019-01-05T02:43:44.762Z,38.20
2019-01-05T02:47:14.963Z,38.53
2019-01-05T02:50:28.801Z,37.23
2019-01-05T02:54:10.929Z,36.00
2019-01-05T02:57:47.813Z,38.77
2019-01-05T03:01:23.306Z,36.97
2019-01-05T03:04:47.890Z,36.20
2019-01-05T03:08:01.909Z,38.07
2019-01-05T03:11:36.466Z,37.30
2019-01-05T03:15:01.813Z,37.23
2019-01-05T03:18:28.497Z,37.47
2019-01-05T03:21:54.665Z,36.70
2019-01-05T03:25:08.056Z,37.87
2019-01-05T03:28:27.154Z,36.33
2019-01-05T03:32:07.791Z,36.73
2019-01-05T03:35:30.596Z,36.80
2019-01-05T03:39:13.302Z,37.37
2019-01-05T03:42:45.681Z,34.80
2019-01-05T03:46:08.900Z,37.20
2019-01-05T03:49:19.297Z,38.63
2019-01-05T03:53:02.507Z,39.70
2019-01-05T03:56:18.125Z,40.17
2019-01-05T03:59:24.518Z,39.57
2019-01-05T04:02:35.891Z,40.30
2019-01-05T04:05:55.770Z,43.97
2019-01-05T04:09:16.369Z,41.93
2019-01-05T04:13:06.457Z,43.03
2019-01-05T04:16:26.406Z,40.90
2019-01-05T04:20:07.296Z,40.17
2019-01-05T04:23:28.733Z,37.93
2019-01-05T04:27:07.226Z,38.10
2019-01-05T04:30:49.613Z,40.60
2019-01-05T04:34:21.289Z,35.43
2019-01-05T04:37:37.081Z,41.50
2019-01-05T04:41:09.356Z,37.80
2019-01-05T04:44:54.281Z,37.63
2019-01-05T04:48:30.844Z,37.37
2019-01-05T04:52:16.033Z,34.13
2019-01-05T04:55:39.977Z,35.40
2019-01-05T04:58:52.666Z,35.17
2019-01-05T05:02:15.901Z,34.63
2019-01-05T05:05:49.509Z,31.87
2019-01-05T05:09:22.871Z,30.97
2019-01-05T05:12:52.302Z,30.70
2019-01-05T05:16:11.532Z,29.97
2019-01-05T05:19:47.997Z,32.70
2019-01-05T05:23:18.908Z,30.50
2019-01-05T05:27:02.958Z,29.37
2019-01-05T05:30:45.534Z,28.93
2019-01-05T05:34:09.539Z,31.47
2019-01-05T05:37:45.180Z,30.27
2019-01-05T05:41:10.399Z,29.97
2019-01-05T05:44:50.789Z,26.83
2019-01-05T05:48:10.798Z,29.00
2019-01-05T05:51:44.536Z,30.80
2019-01-05T05:55:16.732Z,33.90
2019-01-05T05:58:30.988Z,30.97
2019-01-05T06:02:14.177Z,30.57
2019-01-05T06:05:53.602Z,31.70
2019-01-05T06:09:16.503Z,29.50
2019-01-05T06:12:51.257Z,29.90
2019-01-05T06:16:02.257Z,32.23
2019-01-05T06:19:29.802Z,32.37
2019-01-05T06:23:21.825Z,33.07
2019-01-05T06:26:51.724Z,31.37
2019-01-05T06:30:14.613Z,33.17
2019-01-05T06:33:33.298Z,31.90
2019-01-05T06:37:12.342Z,30.87
2019-01-05T06:40:48.716Z,28.47
2019-01-05T06:44:31.013Z,30.63
2019-01-05T06:47:54.220Z,29.70
2019-01-05T06:51:13.017Z,28.97
2019-01-05T06:54:49.490Z,26.17
2019-01-05T06:58:02.313Z,24.90
2019-01-05T07:01:26.141Z,23.83
2019-01-05T07:04:58.968Z,23.60
2019-01-05T07:08:26.333Z,23.13
2019-01-05T07:11:35.102Z,21.60
2019-01-05T07:15:05.222Z,21.80
2019-01-05T07:18:30.213Z,22.57
2019-01-05T07:21:59.066Z,22.60
2019-01-05T07:25:43.076Z,23.67
2019-01-05T07:29:17.157Z,23.03
2019-01-05T07:32:52.113Z,22.07
2019-01-05T07:36:51.321Z,23.87
2019-01-05T07:40:14.893Z,22.70
2019-01-05T07:43:27.814Z,20.43
2019-01-05T07:46:58.200Z,21.67
2019-01-05T07:50:20.857Z,19.60
2019-01-05T07:53:43.535Z,20.27
2019-01-05T07:57:18.109Z,21.00
2019-01-05T08:01:00.901Z,20.03
2019-01-05T08:04:37.637Z,20.37
2019-01-05T08:07:59.941Z,20.77
2019-01-05T08:11:41.417Z,21.47
2019-01-05T08:15:14.709Z,21.37
2019-01-05T08:18:50.792Z,21.37
2019-01-05T08:22:32.016Z,20.90
2019-01-05T08:25:51.953Z,18.47
2019-01-05T08:29:19.092Z,19.93
2019-01-05T08:32:47.962Z,19.40
2019-01-05T08:36:05.132Z,20.53
2019-01-05T08:39:37.305Z,20.97
2019-01-05T08:43:19.787Z,20.43
2019-01-05T08:46:55.742Z,19.07
2019-01-05T08:50:31.739Z,21.00
2019-01-05T08:54:10.981Z,21.40
2019-01-05T08:57:54.351Z,21.27
2019-01-05T09:01:16.757Z,22.60
2019-01-05T09:04:49.289Z,22.93
2019-01-05T09:08:30.225Z,22.20
2019-01-05T09:12:11.613Z,22.60
2019-01-05T09:16:00.082Z,23.30
2019-01-05T09:19:32.425Z,26.63
2019-01-05T09:22:48.632Z,25.00
2019-01-05T09:25:59.724Z,24.00
2019-01-05T09:29:37.303Z,25.57
2019-01-05T09:32:52.298Z,25.00
2019-01-05T09:36:04.761Z,27.00
2019-01-05T09:39:43.861Z,29.63
2019-01-05T09:43:45.814Z,32.37
2019-01-05T09:47:22.384Z,31.60
2019-01-05T09:51:11.359Z,32.93
2019-01-05T09:54:52.745Z,30.03
2019-01-05T09:58:11.669Z,33.90
2019-01-05T10:01:47.461Z,34.77
2019-01-05T10:05:20.590Z,33.07
2019-01-05T10:08:52.185Z,32.20
2019-01-05T10:12:22.911Z,31.00
2019-01-05T10:16:05.560Z,30.93
2019-01-05T10:19:42.915Z,32.23
2019-01-05T10:23:18.702Z,36.43
2019-01-05T10:26:50.845Z,34.97
2019-01-05T10:30:30.257Z,36.97
2019-01-05T10:34:16.252Z,36.50
2019-01-05T10:37:55.844Z,34.60
2019-01-05T10:41:42.413Z,36.00
2019-01-05T10:45:01.193Z,37.73
2019-01-05T10:48:24.025Z,39.07
2019-01-05T10:51:54.237Z,38.50
2019-01-05T10:55:39.714Z,41.00
2019-01-05T10:59:23.282Z,33.57
2019-01-05T11:03:03.977Z,33.43
2019-01-05T11:07:15.396Z,33.80
2019-01-05T11:10:43.722Z,33.63
2019-01-05T11:14:28.332Z,33.57
2019-01-05T11:18:14.335Z,33.33
2019-01-05T11:22:01.649Z,33.00
2019-01-05T11:25:13.589Z,33.50
2019-01-05T11:28:30.397Z,35.43
2019-01-05T11:32:01.790Z,32.97
2019-01-05T11:35:17.712Z,31.67
2019-01-05T11:38:54.453Z,36.37
2019-01-05T11:42:29.835Z,29.20
2019-01-05T11:45:51.997Z,34.13
2019-01-05T11:49:10.077Z,34.10
2019-01-05T11:52:43.276Z,30.40
2019-01-05T11:56:12.109Z,32.27
2019-01-05T11:59:41.566Z,30.77
2019-01-05T12:03:07.651Z,31.10
2019-01-05T12:06:32.488Z,31.50
2019-01-05T12:09:36.945Z,30.33
2019-01-05T12:13:12.419Z,31.83
2019-01-05T12:16:40.763Z,30.67
2019-01-05T12:20:10.106Z,29.00
2019-01-05T12:23:29.344Z,29.27
2019-01-05T12:26:52.074Z,27.37
2019-01-05T12:30:21.939Z,28.07
2019-01-05T12:34:11.698Z,32.13
2019-01-05T12:37:36.837Z,32.53
2019-01-05T12:41:11.058Z,30.47
2019-01-05T12:45:03.014Z,30.30
2019-01-05T12:48:45.710Z,28.73
2019-01-05T12:52:13.201Z,26.10
2019-01-05T12:55:47.107Z,26.03
2019-01-05T12:59:10.609Z,25.73
2019-01-05T13:02:48.785Z,26.67
2019-01-05T13:06:25.553Z,25.13
2019-01-05T13:10:02.598Z,25.10
2019-01-05T13:13:41.197Z,23.67
2019-01-05T13:17:25.625Z,22.13
2019-01-05T13:21:14.230Z,28.80
2019-01-05T13:24:55.516Z,30.10
2019-01-05T13:28:26.623Z,34.53
2019-01-05T13:31:51.057Z,26.17
2019-01-05T13:35:33.192Z,24.70
2019-01-05T13:38:54.029Z,29.23
2019-01-05T13:42:34.697Z,27.40
2019-01-05T13:46:04.794Z,29.20
2019-01-05T13:49:56.941Z,26.60
2019-01-05T13:53:36.157Z,23.67
2019-01-05T13:56:27.305Z,19.63
2019-01-05T13:59:25.967Z,21.80
2019-01-05T14:02:12.927Z,26.00
2019-01-05T14:05:09.461Z,24.03
2019-01-05T14:07:54.320Z,23.63
2019-01-05T14:10:47.537Z,15.07
2019-01-05T14:13:34.400Z,15.57
2019-01-05T14:16:20.005Z,16.70
2019-01-05T14:19:06.761Z,16.33
2019-01-05T14:21:54.624Z,19.93
2019-01-05T14:24:48.036Z,13.53
2019-01-05T14:27:30.088Z,16.00
2019-01-05T14:30:25.957Z,17.77
2019-01-05T14:33:04.733Z,22.07
2019-01-05T14:35:55.288Z,16.77
2019-01-05T14:38:44.861Z,15.00
2019-01-05T14:41:44.617Z,13.40
2019-01-05T14:44:39.057Z,14.30
2019-01-05T14:47:36.048Z,15.90
2019-01-05T14:50:22.761Z,15.40
2019-01-05T14:53:22.174Z,19.43
2019-01-05T14:56:13.788Z,17.30
2019-01-05T14:59:06.700Z,19.30
2019-01-05T15:01:52.737Z,21.83
2019-01-05T15:04:38.849Z,18.47
2019-01-05T15:07:21.355Z,20.40
2019-01-05T15:10:09.119Z,17.00
2019-01-05T15:12:55.941Z,19.63
2019-01-05T15:15:42.702Z,14.73
2019-01-05T15:18:28.397Z,16.77
2019-01-05T15:21:15.203Z,20.23
2019-01-05T15:24:16.797Z,18.27
2019-01-05T15:27:09.636Z,20.83
2019-01-05T15:29:55.287Z,24.67
2019-01-05T15:32:40.874Z,32.57
2019-01-05T15:35:39.505Z,27.70
2019-01-05T15:38:19.804Z,30.93
2019-01-05T15:41:05.677Z,34.80
2019-01-05T15:43:50.792Z,31.50
2019-01-05T15:46:42.468Z,22.97
2019-01-05T15:49:35.854Z,29.47
2019-01-05T15:52:22.048Z,31.40
2019-01-05T15:55:14.971Z,26.93
2019-01-05T15:58:10.721Z,28.53
2019-01-05T16:00:56.056Z,30.60
2019-01-05T16:03:52.188Z,28.63
2019-01-05T16:06:53.538Z,32.07
2019-01-05T16:09:58.821Z,28.43
2019-01-05T16:12:44.294Z,25.37
2019-01-05T16:15:28.205Z,21.93
2019-01-05T16:18:13.794Z,10.53
2019-01-05T16:21:18.306Z,22.13
2019-01-05T16:24:16.953Z,21.50
2019-01-05T16:27:06.485Z,10.30
2019-01-05T16:29:52.214Z,7.63
2019-01-05T16:32:57.840Z,13.27
2019-01-05T16:35:43.837Z,14.90
2019-01-05T16:38:46.023Z,14.97
2019-01-05T16:41:30.257Z,29.67
2019-01-05T16:44:22.889Z,28.50
2019-01-05T16:47:15.309Z,15.73
2019-01-05T16:50:00.553Z,5.17
2019-01-05T16:52:39.288Z,5.20
2019-01-05T16:55:35.337Z,8.43
2019-01-05T16:58:28.150Z,34.10
2019-01-05T17:01:22.718Z,31.13
2019-01-05T17:04:25.158Z,35.10
2019-01-05T17:07:17.680Z,32.07
2019-01-05T17:10:03.243Z,29.90
2019-01-05T17:12:50.429Z,12.13
2019-01-05T17:15:36.268Z,5.90
2019-01-05T17:18:20.777Z,2.43
2019-01-05T17:21:06.457Z,8.17
2019-01-05T17:23:51.976Z,69.43
2019-01-05T17:26:39.053Z,34.93
2019-01-05T17:29:38.020Z,44.40
2019-01-05T17:32:30.491Z,32.57
2019-01-05T17:35:29.693Z,19.40
2019-01-05T17:38:10.313Z,7.07
2019-01-05T17:40:56.050Z,4.07
2019-01-05T17:43:42.851Z,2.73
2019-01-05T17:46:44.439Z,2.67
2019-01-05T17:49:29.741Z,1.50
2019-01-05T17:52:15.478Z,1.63
2019-01-05T17:55:01.869Z,1.40
2019-01-05T17:57:48.637Z,1.43
2019-01-05T18:00:53.725Z,1.20
2019-01-05T18:03:39.029Z,1.00
2019-01-05T18:06:24.968Z,1.30
2019-01-05T18:09:29.090Z,1.00
2019-01-05T18:12:12.901Z,0.83
2019-01-05T18:15:14.646Z,0.90
2019-01-05T18:18:16.670Z,2.03
2019-01-05T18:21:02.186Z,2.27
2019-01-05T18:23:47.916Z,1.10
2019-01-05T18:26:35.469Z,3.30
2019-01-05T18:29:22.604Z,1.37
2019-01-05T18:32:08.037Z,0.90
2019-01-05T18:35:00.962Z,1.07
2019-01-05T18:37:45.116Z,1.00
2019-01-05T18:40:34.738Z,1.23
2019-01-05T18:43:20.524Z,1.50
2019-01-05T18:46:06.029Z,0.73
2019-01-05T18:48:48.880Z,1.07
2019-01-05T18:51:34.329Z,1.00
2019-01-05T18:54:21.132Z,1.10
2019-01-05T18:57:06.476Z,0.80
2019-01-05T18:59:59.476Z,1.07
2019-01-05T19:02:46.313Z,0.80
2019-01-05T19:05:34.428Z,0.80
2019-01-05T19:08:27.610Z,0.80
2019-01-05T19:11:29.704Z,0.90
2019-01-05T19:14:16.533Z,0.80
2019-01-05T19:17:09.298Z,0.90
2019-01-05T19:20:02.170Z,0.70
2019-01-05T19:22:47.593Z,0.70
2019-01-05T19:25:33.670Z,1.00
2019-01-05T19:28:26.539Z,1.03
2019-01-05T19:31:12.062Z,1.00
2019-01-05T19:33:58.194Z,1.00
2019-01-05T19:36:48.525Z,1.13
2019-01-05T19:39:35.285Z,2.87
2019-01-05T19:42:20.509Z,2.17
2019-01-05T19:45:26.107Z,1.27
2019-01-05T19:48:19.115Z,1.10
2019-01-05T19:51:06.245Z,1.30
2019-01-05T19:54:08.081Z,0.87
2019-01-05T19:57:06.734Z,1.27
2019-01-05T19:59:53.594Z,2.73
2019-01-05T20:02:46.457Z,0.90
2019-01-05T20:05:32.203Z,1.30
2019-01-05T20:08:17.494Z,1.10
2019-01-05T20:11:03.493Z,1.30
2019-01-05T20:13:50.257Z,1.67
2019-01-05T20:16:36.907Z,3.40
2019-01-05T20:19:22.693Z,2.67
2019-01-05T20:22:07.253Z,1.53
2019-01-05T20:24:53.501Z,1.40
2019-01-05T20:27:52.960Z,1.47
2019-01-05T20:30:34.850Z,2.80
2019-01-05T20:33:20.329Z,1.47
2019-01-05T20:36:06.844Z,1.50
2019-01-05T20:38:52.820Z,1.80
2019-01-05T20:41:57.861Z,1.70
2019-01-05T20:44:53.810Z,1.47
2019-01-05T20:47:43.587Z,1.70
2019-01-05T20:50:31.021Z,1.50
2019-01-05T20:53:16.473Z,1.43
2019-01-05T20:56:03.382Z,1.83
2019-01-05T20:58:50.224Z,1.80
2019-01-05T21:01:39.793Z,1.70
2019-01-05T21:04:25.064Z,1.70
2019-01-05T21:07:12.464Z,1.80
2019-01-05T21:10:08.593Z,1.93
2019-01-05T21:12:54.176Z,1.40
2019-01-05T21:15:39.623Z,1.80
2019-01-05T21:18:25.317Z,1.80
2019-01-05T21:21:11.325Z,1.70
2019-01-05T21:24:16.365Z,2.23
2019-01-05T21:27:11.989Z,2.00
2019-01-05T21:30:11.999Z,1.80
2019-01-05T21:33:25.568Z,1.90
2019-01-05T21:36:05.901Z,2.00
2019-01-05T21:38:52.053Z,2.37
2019-01-05T21:41:47.522Z,2.40
2019-01-05T21:44:40.331Z,1.73
2019-01-05T21:47:33.145Z,2.10
2019-01-05T21:50:25.688Z,1.80
2019-01-05T21:53:10.831Z,2.00
2019-01-05T21:56:07.159Z,1.80
2019-01-05T21:58:53.150Z,1.63
2019-01-05T22:01:39.072Z,2.00
2019-01-05T22:04:24.865Z,2.00
2019-01-05T22:07:10.125Z,2.17
2019-01-05T22:10:11.752Z,2.17
2019-01-05T22:13:10.610Z,2.30
2019-01-05T22:15:56.260Z,2.17
2019-01-05T22:18:43.077Z,2.20
2019-01-05T22:21:28.389Z,2.40
2019-01-05T22:24:21.064Z,2.00
2019-01-05T22:27:06.836Z,2.43
2019-01-05T22:30:11.832Z,2.33
2019-01-05T22:32:54.815Z,2.37
2019-01-05T22:35:35.216Z,2.00
2019-01-05T22:38:22.182Z,2.20
2019-01-05T22:41:08.249Z,2.00
2019-01-05T22:43:50.984Z,2.27
2019-01-05T22:46:36.581Z,2.30
2019-01-05T22:49:23.384Z,2.33
2019-01-05T22:52:16.644Z,2.10
2019-01-05T22:55:02.352Z,2.00
2019-01-05T22:57:49.084Z,1.90
2019-01-05T23:00:34.653Z,2.07
2019-01-05T23:03:35.661Z,2.10
2019-01-05T23:06:34.749Z,2.00
2019-01-05T23:09:24.317Z,1.97
2019-01-05T23:12:02.389Z,2.00
2019-01-05T23:14:47.484Z,2.13
2019-01-05T23:17:32.736Z,2.10
2019-01-05T23:20:29.021Z,2.23
2019-01-05T23:23:16.134Z,2.33
2019-01-05T23:26:02.126Z,2.53
2019-01-05T23:28:39.911Z,2.30
2019-01-05T23:31:26.935Z,2.50
2019-01-05T23:34:19.533Z,2.73
2019-01-05T23:37:05.135Z,2.47
2019-01-05T23:40:09.836Z,2.27
2019-01-05T23:43:02.417Z,2.53
2019-01-05T23:45:56.196Z,2.50
2019-01-05T23:48:43.394Z,2.30
2019-01-05T23:51:22.549Z,2.50
2019-01-05T23:54:12.445Z,2.53
2019-01-05T23:56:57.844Z,2.63
2019-01-05T23:59:46.044Z,2.50
